createdAt,value
2018-09-14T00:00:52.421Z,16.00
2018-09-14T00:03:21.028Z,15.90
2018-09-14T00:05:49.665Z,15.70
2018-09-14T00:08:18.220Z,15.70
2018-09-14T00:10:46.769Z,15.70
2018-09-14T00:13:15.385Z,15.60
2018-09-14T00:15:44.127Z,15.60
2018-09-14T00:18:12.634Z,15.60
2018-09-14T00:20:41.244Z,15.40
2018-09-14T00:23:09.838Z,15.20
2018-09-14T00:25:38.366Z,15.10
2018-09-14T00:28:06.943Z,15.00
2018-09-14T00:30:35.339Z,15.20
2018-09-14T00:33:03.764Z,15.30
2018-09-14T00:35:32.207Z,15.40
2018-09-14T00:38:00.630Z,15.50
2018-09-14T00:40:29.159Z,15.70
2018-09-14T00:42:57.604Z,15.80
2018-09-14T00:45:26.166Z,15.50
2018-09-14T00:47:54.705Z,15.30
2018-09-14T00:50:23.192Z,15.30
2018-09-14T00:52:51.754Z,15.30
2018-09-14T00:55:20.247Z,15.30
2018-09-14T00:57:48.676Z,15.10
2018-09-14T01:00:17.177Z,14.90
2018-09-14T01:02:45.592Z,15.00
2018-09-14T01:05:14.025Z,14.90
2018-09-14T01:07:42.538Z,14.90
2018-09-14T01:10:10.977Z,14.80
2018-09-14T01:12:39.469Z,14.80
2018-09-14T01:15:08.040Z,14.80
2018-09-14T01:17:36.580Z,15.00
2018-09-14T01:20:05.173Z,14.90
2018-09-14T01:22:33.551Z,14.80
2018-09-14T01:25:01.933Z,14.80
2018-09-14T01:27:30.568Z,14.90
2018-09-14T01:29:59.024Z,15.10
2018-09-14T01:32:27.512Z,15.30
2018-09-14T01:34:55.996Z,15.20
2018-09-14T01:37:24.523Z,15.20
2018-09-14T01:39:53.057Z,14.90
2018-09-14T01:42:21.532Z,14.90
2018-09-14T01:44:49.966Z,15.10
2018-09-14T01:47:18.575Z,15.20
2018-09-14T01:49:47.110Z,15.10
2018-09-14T01:52:15.590Z,15.30
2018-09-14T01:54:44.072Z,15.30
2018-09-14T01:57:12.528Z,15.30
2018-09-14T01:59:41.055Z,15.30
2018-09-14T02:02:09.511Z,15.10
2018-09-14T02:04:38.019Z,15.10
2018-09-14T02:07:06.429Z,15.00
2018-09-14T02:09:34.776Z,14.90
2018-09-14T02:12:03.231Z,14.80
2018-09-14T02:14:31.589Z,14.80
2018-09-14T02:16:59.991Z,15.00
2018-09-14T02:19:28.343Z,15.10
2018-09-14T02:21:57.554Z,15.20
2018-09-14T02:24:25.978Z,15.30
2018-09-14T02:26:54.370Z,15.30
2018-09-14T02:29:22.799Z,15.20
2018-09-14T02:31:51.324Z,15.00
2018-09-14T02:34:19.888Z,14.80
2018-09-14T02:36:48.307Z,14.80
2018-09-14T02:39:16.763Z,15.00
2018-09-14T02:41:45.604Z,15.00
2018-09-14T02:44:14.133Z,15.00
2018-09-14T02:46:42.816Z,15.00
2018-09-14T02:49:11.249Z,15.00
2018-09-14T02:51:39.665Z,15.10
2018-09-14T02:54:08.445Z,15.30
2018-09-14T02:56:36.831Z,15.40
2018-09-14T02:59:05.227Z,15.40
2018-09-14T03:01:33.797Z,15.30
2018-09-14T03:04:02.279Z,15.20
2018-09-14T03:06:30.772Z,15.40
2018-09-14T03:08:59.162Z,15.40
2018-09-14T03:11:27.623Z,15.40
2018-09-14T03:13:55.962Z,15.50
2018-09-14T03:16:24.407Z,15.50
2018-09-14T03:18:52.799Z,15.30
2018-09-14T03:21:21.227Z,15.30
2018-09-14T03:23:49.743Z,15.30
2018-09-14T03:26:19.307Z,15.50
2018-09-14T03:28:47.791Z,15.50
2018-09-14T03:31:16.304Z,15.50
2018-09-14T03:33:44.765Z,15.10
2018-09-14T03:36:13.200Z,14.90
2018-09-14T03:38:41.671Z,15.00
2018-09-14T03:41:10.146Z,14.80
2018-09-14T03:43:38.698Z,14.80
2018-09-14T03:46:07.071Z,14.80
2018-09-14T03:48:35.576Z,15.00
2018-09-14T03:51:04.035Z,15.20
2018-09-14T03:53:32.455Z,15.10
2018-09-14T03:56:00.979Z,15.30
2018-09-14T03:58:29.343Z,15.20
2018-09-14T04:00:57.739Z,15.30
2018-09-14T04:03:26.178Z,15.30
2018-09-14T04:05:54.615Z,15.20
2018-09-14T04:08:23.012Z,15.00
2018-09-14T04:10:51.449Z,14.90
2018-09-14T04:13:19.872Z,15.00
2018-09-14T04:15:48.302Z,15.20
2018-09-14T04:18:16.710Z,15.20
2018-09-14T04:20:45.215Z,15.40
2018-09-14T04:23:13.567Z,15.20
2018-09-14T04:25:42.076Z,15.20
2018-09-14T04:28:10.536Z,15.40
2018-09-14T04:30:38.964Z,15.00
2018-09-14T04:33:07.369Z,14.90
2018-09-14T04:35:35.907Z,14.70
2018-09-14T04:38:04.430Z,14.60
2018-09-14T04:40:32.821Z,14.50
2018-09-14T04:43:01.265Z,14.60
2018-09-14T04:45:29.716Z,14.50
2018-09-14T04:47:58.208Z,14.50
2018-09-14T04:50:26.774Z,14.40
2018-09-14T04:52:55.236Z,14.40
2018-09-14T04:55:23.779Z,14.40
2018-09-14T04:57:52.243Z,14.70
2018-09-14T05:00:20.728Z,14.70
2018-09-14T05:02:49.199Z,14.90
2018-09-14T05:05:17.595Z,14.60
2018-09-14T05:07:46.107Z,14.70
2018-09-14T05:10:14.493Z,14.90
2018-09-14T05:12:43.011Z,15.10
2018-09-14T05:15:11.419Z,15.10
2018-09-14T05:17:39.886Z,15.20
2018-09-14T05:20:08.449Z,15.40
2018-09-14T05:22:37.043Z,15.50
2018-09-14T05:25:05.484Z,15.50
2018-09-14T05:27:34.077Z,15.40
2018-09-14T05:30:02.592Z,15.20
2018-09-14T05:32:31.013Z,15.30
2018-09-14T05:34:59.475Z,15.50
2018-09-14T05:37:27.963Z,15.60
2018-09-14T05:39:56.436Z,15.40
2018-09-14T05:42:24.918Z,15.30
2018-09-14T05:44:53.348Z,15.10
2018-09-14T05:47:21.920Z,15.00
2018-09-14T05:49:50.360Z,14.70
2018-09-14T05:52:18.852Z,14.50
2018-09-14T05:54:47.309Z,14.60
2018-09-14T05:57:15.628Z,14.50
2018-09-14T05:59:44.192Z,14.60
2018-09-14T06:02:12.700Z,15.10
2018-09-14T06:04:41.203Z,15.50
2018-09-14T06:07:09.618Z,15.30
2018-09-14T06:09:38.157Z,15.40
2018-09-14T06:12:06.591Z,15.40
2018-09-14T06:14:35.159Z,15.80
2018-09-14T06:17:03.655Z,15.80
2018-09-14T06:19:32.437Z,16.20
2018-09-14T06:22:00.956Z,16.50
2018-09-14T06:24:29.414Z,16.80
2018-09-14T06:26:57.942Z,17.00
2018-09-14T06:29:26.675Z,16.80
2018-09-14T06:31:55.159Z,16.80
2018-09-14T06:34:23.615Z,16.70
2018-09-14T06:36:52.531Z,16.60
2018-09-14T06:39:20.967Z,16.60
2018-09-14T06:41:49.443Z,16.70
2018-09-14T06:44:17.934Z,16.50
2018-09-14T06:46:46.381Z,16.00
2018-09-14T06:49:14.808Z,16.00
2018-09-14T06:51:44.031Z,15.60
2018-09-14T06:54:12.552Z,15.80
2018-09-14T06:56:41.191Z,16.10
2018-09-14T06:59:09.678Z,16.50
2018-09-14T07:01:38.145Z,16.00
2018-09-14T07:04:06.629Z,15.80
2018-09-14T07:06:35.191Z,15.90
2018-09-14T07:09:04.319Z,15.80
2018-09-14T07:11:32.776Z,16.10
2018-09-14T07:14:01.195Z,16.20
2018-09-14T07:16:29.653Z,16.40
2018-09-14T07:18:59.006Z,16.50
2018-09-14T07:21:27.641Z,16.60
2018-09-14T07:23:56.266Z,16.90
2018-09-14T07:26:24.834Z,17.10
2018-09-14T07:28:53.290Z,16.90
2018-09-14T07:31:21.796Z,16.10
2018-09-14T07:33:51.282Z,15.70
2018-09-14T07:36:19.871Z,15.70
2018-09-14T07:38:48.404Z,15.70
2018-09-14T07:41:16.876Z,16.00
2018-09-14T07:43:45.323Z,16.40
2018-09-14T07:46:13.760Z,16.50
2018-09-14T07:48:42.829Z,16.20
2018-09-14T07:51:11.230Z,16.00
2018-09-14T07:53:39.763Z,16.20
2018-09-14T07:56:08.382Z,16.50
2018-09-14T07:58:36.868Z,16.60
2018-09-14T08:01:05.354Z,16.70
2018-09-14T08:03:33.888Z,16.80
2018-09-14T08:06:02.416Z,17.20
2018-09-14T08:08:30.976Z,16.50
2018-09-14T08:10:59.441Z,16.40
2018-09-14T08:13:27.980Z,16.30
2018-09-14T08:15:56.424Z,16.70
2018-09-14T08:18:24.957Z,17.00
2018-09-14T08:20:53.651Z,16.70
2018-09-14T08:23:22.276Z,16.80
2018-09-14T08:25:50.756Z,17.00
2018-09-14T08:28:19.320Z,17.00
2018-09-14T08:30:47.644Z,16.60
2018-09-14T08:33:16.124Z,16.90
2018-09-14T08:35:44.563Z,16.80
2018-09-14T08:38:13.170Z,17.00
2018-09-14T08:40:41.668Z,17.00
2018-09-14T08:43:10.170Z,16.80
2018-09-14T08:45:38.675Z,16.60
2018-09-14T08:48:07.245Z,16.10
2018-09-14T08:50:35.728Z,16.00
2018-09-14T08:53:04.310Z,16.50
2018-09-14T08:55:32.813Z,16.30
2018-09-14T08:58:01.598Z,16.50
2018-09-14T09:00:30.049Z,16.60
2018-09-14T09:02:59.277Z,16.80
2018-09-14T09:05:27.643Z,16.80
2018-09-14T09:07:56.247Z,16.90
2018-09-14T09:10:24.819Z,17.30
2018-09-14T09:12:53.493Z,17.20
2018-09-14T09:15:21.992Z,17.30
2018-09-14T09:17:50.707Z,17.50
2018-09-14T09:20:19.263Z,17.50
2018-09-14T09:22:47.806Z,17.40
2018-09-14T09:25:16.372Z,17.40
2018-09-14T09:27:44.852Z,17.50
2018-09-14T09:30:13.323Z,17.20
2018-09-14T09:32:41.857Z,16.90
2018-09-14T09:35:10.619Z,17.40
2018-09-14T09:37:39.218Z,17.20
2018-09-14T09:40:07.762Z,17.80
2018-09-14T09:42:36.207Z,18.50
2018-09-14T09:45:04.779Z,18.90
2018-09-14T09:47:33.332Z,18.30
2018-09-14T09:50:01.900Z,18.60
2018-09-14T09:52:30.438Z,18.80
2018-09-14T09:54:58.985Z,19.30
2018-09-14T09:57:28.361Z,18.70
2018-09-14T09:59:56.961Z,18.20
2018-09-14T10:02:33.683Z,18.10
2018-09-14T10:05:07.801Z,18.70
2018-09-14T10:07:36.394Z,19.10
2018-09-14T10:10:05.020Z,18.80
2018-09-14T10:12:34.272Z,18.90
2018-09-14T10:15:02.907Z,18.30
2018-09-14T10:17:31.376Z,18.60
2018-09-14T10:19:59.877Z,19.20
2018-09-14T10:22:28.391Z,19.00
2018-09-14T10:24:56.920Z,19.10
2018-09-14T10:27:25.463Z,19.30
2018-09-14T10:29:54.003Z,19.10
2018-09-14T10:32:22.519Z,19.30
2018-09-14T10:34:50.981Z,19.90
2018-09-14T10:37:19.456Z,20.60
2018-09-14T10:39:47.932Z,22.70
2018-09-14T10:42:16.542Z,22.50
2018-09-14T10:44:45.092Z,21.60
2018-09-14T10:47:13.480Z,22.10
2018-09-14T10:49:41.983Z,22.90
2018-09-14T10:52:10.380Z,22.00
2018-09-14T10:54:38.854Z,22.30
2018-09-14T10:57:07.337Z,22.30
2018-09-14T10:59:35.709Z,21.80
2018-09-14T11:02:04.129Z,22.10
2018-09-14T11:04:32.687Z,23.60
2018-09-14T11:07:01.218Z,23.40
2018-09-14T11:09:29.694Z,23.80
2018-09-14T11:11:58.099Z,22.90
2018-09-14T11:14:26.511Z,23.50
2018-09-14T11:16:54.896Z,23.30
2018-09-14T11:19:23.346Z,22.30
2018-09-14T11:21:51.811Z,21.80
2018-09-14T11:24:20.258Z,22.80
2018-09-14T11:26:48.651Z,23.90
2018-09-14T11:29:17.072Z,24.60
2018-09-14T11:31:45.604Z,25.30
2018-09-14T11:34:14.113Z,24.50
2018-09-14T11:36:42.600Z,23.20
2018-09-14T11:39:11.274Z,23.50
2018-09-14T11:41:39.661Z,25.40
2018-09-14T11:44:08.147Z,26.30
2018-09-14T11:46:36.620Z,25.70
2018-09-14T11:49:05.107Z,24.30
2018-09-14T11:51:33.580Z,26.70
2018-09-14T11:54:02.066Z,26.40
2018-09-14T11:56:30.527Z,27.90
2018-09-14T11:58:58.981Z,28.60
2018-09-14T12:01:27.523Z,27.90
2018-09-14T12:03:56.731Z,28.00
2018-09-14T12:06:25.203Z,26.50
2018-09-14T12:08:54.745Z,25.80
2018-09-14T12:11:23.234Z,23.70
2018-09-14T12:13:51.883Z,23.10
2018-09-14T12:16:20.254Z,23.20
2018-09-14T12:18:48.672Z,23.30
2018-09-14T12:21:17.136Z,23.00
2018-09-14T12:23:45.613Z,23.00
2018-09-14T12:26:13.972Z,22.60
2018-09-14T12:28:42.516Z,22.60
2018-09-14T12:31:10.904Z,22.90
2018-09-14T12:33:39.382Z,22.50
2018-09-14T12:36:07.783Z,23.80
2018-09-14T12:38:36.907Z,25.50
2018-09-14T12:41:05.391Z,24.60
2018-09-14T12:43:33.861Z,23.40
2018-09-14T12:46:03.214Z,23.80
2018-09-14T12:48:31.757Z,24.10
2018-09-14T12:51:00.306Z,24.20
2018-09-14T12:53:28.795Z,24.80
2018-09-14T12:55:57.267Z,24.70
2018-09-14T12:58:25.889Z,26.40
2018-09-14T13:00:54.427Z,26.30
2018-09-14T13:03:23.584Z,24.70
2018-09-14T13:05:52.078Z,23.50
2018-09-14T13:08:20.548Z,22.30
2018-09-14T13:10:49.015Z,22.20
2018-09-14T13:13:17.597Z,22.60
2018-09-14T13:15:46.200Z,23.00
2018-09-14T13:18:14.768Z,23.20
2018-09-14T13:20:43.405Z,23.80
2018-09-14T13:23:12.033Z,24.10
2018-09-14T13:25:40.622Z,23.90
2018-09-14T13:28:09.108Z,24.00
2018-09-14T13:30:37.644Z,24.00
2018-09-14T13:33:05.719Z,24.00
2018-09-14T13:35:34.236Z,23.70
2018-09-14T13:38:02.683Z,22.80
2018-09-14T13:40:31.249Z,23.10
2018-09-14T13:42:59.680Z,22.50
2018-09-14T13:45:28.318Z,22.40
2018-09-14T13:47:56.868Z,22.40
2018-09-14T13:50:25.384Z,22.80
2018-09-14T13:52:54.196Z,23.00
2018-09-14T13:55:22.571Z,22.80
2018-09-14T13:57:51.090Z,22.70
2018-09-14T14:00:19.569Z,22.70
2018-09-14T14:02:48.204Z,22.80
2018-09-14T14:05:16.651Z,23.00
2018-09-14T14:07:45.184Z,22.80
2018-09-14T14:10:13.627Z,22.90
2018-09-14T14:12:41.975Z,22.80
2018-09-14T14:15:10.561Z,22.80
2018-09-14T14:17:39.077Z,22.70
2018-09-14T14:20:07.480Z,22.60
2018-09-14T14:22:36.016Z,22.50
2018-09-14T14:25:04.582Z,22.50
2018-09-14T14:27:33.217Z,22.30
2018-09-14T14:30:01.762Z,22.30
2018-09-14T14:32:30.235Z,22.30
2018-09-14T14:34:58.815Z,22.30
2018-09-14T14:37:27.372Z,22.30
2018-09-14T14:39:55.904Z,22.40
2018-09-14T14:42:24.437Z,22.40
2018-09-14T14:44:52.859Z,22.30
2018-09-14T14:47:21.294Z,22.20
2018-09-14T14:49:49.801Z,22.20
2018-09-14T14:52:18.316Z,22.30
2018-09-14T14:54:46.941Z,22.20
2018-09-14T14:57:15.403Z,22.10
2018-09-14T14:59:43.944Z,22.00
2018-09-14T15:02:12.587Z,21.90
2018-09-14T15:04:40.995Z,21.90
2018-09-14T15:07:09.479Z,21.80
2018-09-14T15:09:38.129Z,21.70
2018-09-14T15:12:06.623Z,21.80
2018-09-14T15:14:35.079Z,21.80
2018-09-14T15:17:03.568Z,21.80
2018-09-14T15:19:32.094Z,21.90
2018-09-14T15:22:00.499Z,21.80
2018-09-14T15:24:28.967Z,22.00
2018-09-14T15:26:57.449Z,22.10
2018-09-14T15:29:26.089Z,21.90
2018-09-14T15:31:54.530Z,21.90
2018-09-14T15:34:23.149Z,21.80
2018-09-14T15:36:51.766Z,21.60
2018-09-14T15:39:20.372Z,21.70
2018-09-14T15:41:48.899Z,21.60
2018-09-14T15:44:17.361Z,21.60
2018-09-14T15:46:45.916Z,21.50
2018-09-14T15:49:14.500Z,21.50
2018-09-14T15:51:42.907Z,21.60
2018-09-14T15:54:11.292Z,21.50
2018-09-14T15:56:39.806Z,21.50
2018-09-14T15:59:08.297Z,21.50
2018-09-14T16:01:36.647Z,21.40
2018-09-14T16:04:05.047Z,21.30
2018-09-14T16:06:33.454Z,21.30
2018-09-14T16:09:01.884Z,21.40
2018-09-14T16:11:30.300Z,21.20
2018-09-14T16:13:58.812Z,21.20
2018-09-14T16:16:27.341Z,21.10
2018-09-14T16:18:55.857Z,21.00
2018-09-14T16:21:24.253Z,21.10
2018-09-14T16:23:52.684Z,21.10
2018-09-14T16:26:21.703Z,21.10
2018-09-14T16:28:50.271Z,21.10
2018-09-14T16:31:18.639Z,21.10
2018-09-14T16:33:47.017Z,21.00
2018-09-14T16:36:15.467Z,21.00
2018-09-14T16:38:43.879Z,21.00
2018-09-14T16:41:12.346Z,20.90
2018-09-14T16:43:40.750Z,20.80
2018-09-14T16:46:09.242Z,20.80
2018-09-14T16:48:37.647Z,20.70
2018-09-14T16:51:06.027Z,20.60
2018-09-14T16:53:34.408Z,20.60
2018-09-14T16:56:02.806Z,20.50
2018-09-14T16:58:31.191Z,20.50
2018-09-14T17:00:59.578Z,20.50
2018-09-14T17:03:28.094Z,20.40
2018-09-14T17:05:56.532Z,20.40
2018-09-14T17:08:25.043Z,20.40
2018-09-14T17:10:53.635Z,20.40
2018-09-14T17:13:22.057Z,20.40
2018-09-14T17:15:50.684Z,20.40
2018-09-14T17:18:19.092Z,20.40
2018-09-14T17:20:47.527Z,20.40
2018-09-14T17:23:15.884Z,20.40
2018-09-14T17:25:44.382Z,20.30
2018-09-14T17:28:12.891Z,20.40
2018-09-14T17:30:41.459Z,20.30
2018-09-14T17:33:09.828Z,20.30
2018-09-14T17:35:38.307Z,20.30
2018-09-14T17:38:06.678Z,20.20
2018-09-14T17:40:35.110Z,20.20
2018-09-14T17:43:03.550Z,20.20
2018-09-14T17:45:32.101Z,20.20
2018-09-14T17:48:00.653Z,20.20
2018-09-14T17:50:29.155Z,20.20
2018-09-14T17:52:57.795Z,20.20
2018-09-14T17:55:26.266Z,20.20
2018-09-14T17:57:54.752Z,20.20
2018-09-14T18:00:23.197Z,20.20
2018-09-14T18:02:51.731Z,20.20
2018-09-14T18:05:20.163Z,20.20
2018-09-14T18:07:48.885Z,20.10
2018-09-14T18:10:17.470Z,20.10
2018-09-14T18:12:45.907Z,20.00
2018-09-14T18:15:14.326Z,20.00
2018-09-14T18:17:42.805Z,19.90
2018-09-14T18:20:11.395Z,19.80
2018-09-14T18:22:39.889Z,19.70
2018-09-14T18:25:08.515Z,19.70
2018-09-14T18:27:37.233Z,19.50
2018-09-14T18:30:05.831Z,19.30
2018-09-14T18:32:34.330Z,19.10
2018-09-14T18:35:02.994Z,18.90
2018-09-14T18:37:31.345Z,18.90
2018-09-14T18:39:59.772Z,19.10
2018-09-14T18:42:28.328Z,19.30
2018-09-14T18:44:56.741Z,19.40
2018-09-14T18:47:25.265Z,19.50
2018-09-14T18:49:53.803Z,19.40
2018-09-14T18:52:22.275Z,19.40
2018-09-14T18:54:50.794Z,19.30
2018-09-14T18:57:19.348Z,19.30
2018-09-14T18:59:47.829Z,19.30
2018-09-14T19:02:16.465Z,19.40
2018-09-14T19:04:45.477Z,19.40
2018-09-14T19:07:14.081Z,19.20
2018-09-14T19:09:42.564Z,18.60
2018-09-14T19:12:11.159Z,18.30
2018-09-14T19:14:39.868Z,18.20
2018-09-14T19:17:08.520Z,18.20
2018-09-14T19:19:36.959Z,18.30
2018-09-14T19:22:05.374Z,18.40
2018-09-14T19:24:33.840Z,18.50
2018-09-14T19:27:02.309Z,18.20
2018-09-14T19:29:30.918Z,18.00
2018-09-14T19:31:59.396Z,17.90
2018-09-14T19:34:27.747Z,17.90
2018-09-14T19:36:56.371Z,17.80
2018-09-14T19:39:24.902Z,17.90
2018-09-14T19:41:53.680Z,17.90
2018-09-14T19:44:22.234Z,17.90
2018-09-14T19:46:50.753Z,17.80
2018-09-14T19:49:19.248Z,17.80
2018-09-14T19:54:31.273Z,18.00
2018-09-14T19:56:59.588Z,17.80
2018-09-14T19:59:27.864Z,17.60
2018-09-14T20:01:56.147Z,17.50
2018-09-14T20:04:24.451Z,17.40
2018-09-14T20:06:52.730Z,17.30
2018-09-14T20:09:21.054Z,17.20
2018-09-14T20:11:49.286Z,17.10
2018-09-14T20:14:17.528Z,17.20
2018-09-14T20:16:47.011Z,17.00
2018-09-14T20:19:15.242Z,17.00
2018-09-14T20:21:43.513Z,17.20
2018-09-14T20:24:11.743Z,17.10
2018-09-14T20:26:40.040Z,17.10
2018-09-14T20:29:08.270Z,17.20
2018-09-14T20:31:37.150Z,17.40
2018-09-14T20:34:05.424Z,17.50
2018-09-14T20:36:33.682Z,17.40
2018-09-14T20:39:01.970Z,16.80
2018-09-14T20:41:30.234Z,16.60
2018-09-14T20:43:58.494Z,16.30
2018-09-14T20:46:26.763Z,16.30
2018-09-14T20:48:55.023Z,16.20
2018-09-14T20:51:23.333Z,16.10
2018-09-14T20:53:51.587Z,16.50
2018-09-14T20:56:19.875Z,16.80
2018-09-14T20:58:48.374Z,16.60
2018-09-14T21:01:16.651Z,16.90
2018-09-14T21:03:44.932Z,16.70
2018-09-14T21:06:13.256Z,16.50
2018-09-14T21:11:44.477Z,16.10
2018-09-14T21:14:12.711Z,16.00
2018-09-14T21:16:40.957Z,16.30
2018-09-14T21:19:09.171Z,16.50
2018-09-14T21:21:37.422Z,16.30
2018-09-14T21:24:05.653Z,16.30
2018-09-14T21:26:33.905Z,16.20
2018-09-14T21:29:02.227Z,16.10
2018-09-14T21:31:30.483Z,16.00
2018-09-14T21:33:58.763Z,16.10
2018-09-14T21:36:27.027Z,16.10
2018-09-14T21:38:55.292Z,16.00
2018-09-14T21:41:23.544Z,16.20
2018-09-14T21:43:51.852Z,16.10
2018-09-14T21:46:20.067Z,16.00
2018-09-14T21:48:48.422Z,15.90
2018-09-14T21:51:16.679Z,15.90
2018-09-14T21:53:44.974Z,15.90
2018-09-14T21:56:13.159Z,16.10
2018-09-14T21:58:41.423Z,16.30
2018-09-14T22:01:13.990Z,15.90
2018-09-14T22:03:43.493Z,15.60
2018-09-14T22:06:11.736Z,15.50
2018-09-14T22:08:40.015Z,15.50
2018-09-14T22:11:08.294Z,15.40
2018-09-14T22:13:36.557Z,15.30
2018-09-14T22:16:04.789Z,15.40
2018-09-14T22:18:33.151Z,15.30
2018-09-14T22:21:01.356Z,15.30
2018-09-14T22:23:29.635Z,15.20
2018-09-14T22:25:57.909Z,15.20
2018-09-14T22:28:26.174Z,15.40
2018-09-14T22:30:54.924Z,15.60
2018-09-14T22:33:23.146Z,15.70
2018-09-14T22:35:51.455Z,15.80
2018-09-14T22:38:19.703Z,15.90
2018-09-14T22:40:47.906Z,16.00
2018-09-14T22:43:16.182Z,15.40
2018-09-14T22:45:44.500Z,15.00
2018-09-14T22:48:12.736Z,14.80
2018-09-14T22:50:41.010Z,14.70
2018-09-14T22:53:09.189Z,14.70
2018-09-14T22:55:37.427Z,14.60
2018-09-14T22:58:05.722Z,14.60
2018-09-14T23:00:39.342Z,14.60
2018-09-14T23:03:07.631Z,14.60
2018-09-14T23:05:35.895Z,14.60
2018-09-14T23:08:04.144Z,14.50
2018-09-14T23:10:32.359Z,14.40
2018-09-14T23:13:00.629Z,14.30
2018-09-14T23:15:28.868Z,14.40
2018-09-14T23:17:57.144Z,14.30
2018-09-14T23:20:25.413Z,14.30
2018-09-14T23:22:53.631Z,14.20
2018-09-14T23:25:21.858Z,14.20
2018-09-14T23:27:50.106Z,14.10
2018-09-14T23:30:18.309Z,14.10
2018-09-14T23:32:46.533Z,14.20
2018-09-14T23:35:14.790Z,14.20
2018-09-14T23:37:43.033Z,14.20
2018-09-14T23:40:11.362Z,14.10
2018-09-14T23:42:39.587Z,14.20
2018-09-14T23:45:07.782Z,14.30
2018-09-14T23:47:36.724Z,14.10
2018-09-14T23:50:04.934Z,14.00
2018-09-14T23:52:34.046Z,13.80
2018-09-14T23:55:02.282Z,13.60
2018-09-14T23:57:30.547Z,13.60
2018-09-14T23:59:58.753Z,13.70
